createdAt,value
2018-03-20T00:00:18.833Z,13.93
2018-03-20T00:02:54.226Z,13.97
2018-03-20T00:05:28.748Z,13.90
2018-03-20T00:08:03.291Z,13.50
2018-03-20T00:10:37.892Z,14.67
2018-03-20T00:13:12.116Z,15.37
2018-03-20T00:15:46.115Z,13.70
2018-03-20T00:18:20.647Z,13.77
2018-03-20T00:20:54.445Z,14.43
2018-03-20T00:23:29.718Z,14.20
2018-03-20T00:26:03.844Z,14.40
2018-03-20T00:28:38.647Z,14.70
2018-03-20T00:31:12.600Z,14.43
2018-03-20T00:33:46.365Z,14.63
2018-03-20T00:36:20.944Z,14.40
2018-03-20T00:38:55.687Z,13.80
2018-03-20T00:41:30.844Z,14.03
2018-03-20T00:44:04.553Z,14.37
2018-03-20T00:46:39.180Z,14.77
2018-03-20T00:49:13.981Z,14.87
2018-03-20T00:51:47.790Z,14.30
2018-03-20T00:54:23.023Z,15.00
2018-03-20T00:56:57.036Z,14.63
2018-03-20T00:59:31.293Z,14.93
2018-03-20T01:02:05.781Z,15.13
2018-03-20T01:04:39.575Z,15.37
2018-03-20T01:07:13.571Z,15.37
2018-03-20T01:09:47.999Z,14.67
2018-03-20T01:12:21.824Z,14.90
2018-03-20T01:14:55.711Z,15.07
2018-03-20T01:17:29.925Z,15.30
2018-03-20T01:20:04.710Z,15.67
2018-03-20T01:22:38.501Z,14.90
2018-03-20T01:25:13.212Z,15.50
2018-03-20T01:27:47.826Z,15.20
2018-03-20T01:30:22.251Z,15.27
2018-03-20T01:32:56.960Z,14.97
2018-03-20T01:35:31.277Z,16.27
2018-03-20T01:38:05.333Z,14.97
2018-03-20T01:40:39.152Z,14.63
2018-03-20T01:43:13.677Z,15.00
2018-03-20T01:45:47.510Z,15.60
2018-03-20T01:48:22.024Z,15.77
2018-03-20T01:50:56.658Z,16.27
2018-03-20T01:53:31.992Z,16.40
2018-03-20T01:56:06.606Z,15.03
2018-03-20T01:58:41.959Z,15.40
2018-03-20T02:01:16.704Z,16.83
2018-03-20T02:03:50.903Z,17.00
2018-03-20T02:06:25.422Z,16.07
2018-03-20T02:08:59.923Z,15.73
2018-03-20T02:11:34.760Z,15.57
2018-03-20T02:14:09.717Z,16.70
2018-03-20T02:16:43.839Z,15.17
2018-03-20T02:19:17.919Z,15.67
2018-03-20T02:21:52.435Z,16.37
2018-03-20T02:24:26.208Z,15.50
2018-03-20T02:27:00.613Z,14.40
2018-03-20T02:29:35.017Z,16.00
2018-03-20T02:32:08.998Z,15.57
2018-03-20T02:34:42.728Z,15.80
2018-03-20T02:37:16.431Z,14.83
2018-03-20T02:39:50.610Z,15.60
2018-03-20T02:42:24.312Z,16.83
2018-03-20T02:44:59.042Z,14.33
2018-03-20T02:47:33.051Z,15.17
2018-03-20T02:50:06.658Z,16.17
2018-03-20T02:52:40.572Z,15.40
2018-03-20T02:55:15.081Z,16.07
2018-03-20T02:57:49.622Z,15.03
2018-03-20T03:00:24.129Z,16.03
2018-03-20T03:02:58.877Z,16.43
2018-03-20T03:05:32.953Z,16.37
2018-03-20T03:08:06.859Z,15.30
2018-03-20T03:10:41.591Z,14.23
2018-03-20T03:13:16.431Z,15.77
2018-03-20T03:15:51.447Z,15.43
2018-03-20T03:18:25.337Z,16.63
2018-03-20T03:20:59.143Z,15.93
2018-03-20T03:23:33.663Z,16.63
2018-03-20T03:26:08.695Z,16.17
2018-03-20T03:28:43.244Z,16.43
2018-03-20T03:31:17.205Z,15.73
2018-03-20T03:33:51.162Z,16.80
2018-03-20T03:36:25.572Z,15.83
2018-03-20T03:38:59.347Z,16.67
2018-03-20T03:41:33.153Z,15.60
2018-03-20T03:44:07.216Z,16.97
2018-03-20T03:46:41.359Z,16.67
2018-03-20T03:49:15.444Z,16.80
2018-03-20T03:51:49.228Z,17.07
2018-03-20T03:54:23.862Z,15.70
2018-03-20T03:56:57.895Z,16.87
2018-03-20T03:59:32.609Z,17.00
2018-03-20T04:02:07.016Z,16.20
2018-03-20T04:04:41.036Z,16.20
2018-03-20T04:07:15.654Z,17.23
2018-03-20T04:09:50.295Z,17.50
2018-03-20T04:12:24.380Z,16.33
2018-03-20T04:14:58.827Z,16.40
2018-03-20T04:17:32.920Z,17.27
2018-03-20T04:20:06.775Z,17.23
2018-03-20T04:22:41.508Z,16.83
2018-03-20T04:25:16.212Z,16.17
2018-03-20T04:27:50.285Z,17.83
2018-03-20T04:30:24.599Z,18.00
2018-03-20T04:32:58.507Z,17.10
2018-03-20T04:35:33.556Z,17.40
2018-03-20T04:38:07.535Z,16.73
2018-03-20T04:40:41.452Z,15.93
2018-03-20T04:43:15.772Z,17.07
2018-03-20T04:45:50.391Z,17.87
2018-03-20T04:48:25.446Z,17.30
2018-03-20T04:50:59.948Z,16.50
2018-03-20T04:53:34.813Z,17.20
2018-03-20T04:56:08.427Z,17.00
2018-03-20T04:58:42.292Z,18.07
2018-03-20T05:01:16.002Z,16.87
2018-03-20T05:03:50.602Z,18.40
2018-03-20T05:06:24.116Z,17.73
2018-03-20T05:08:57.899Z,17.57
2018-03-20T05:11:32.133Z,17.17
2018-03-20T05:14:06.836Z,17.57
2018-03-20T05:16:41.599Z,18.50
2018-03-20T05:19:31.555Z,17.57
2018-03-20T05:22:11.524Z,17.87
2018-03-20T05:24:45.933Z,17.47
2018-03-20T05:27:19.840Z,17.53
2018-03-20T05:29:54.988Z,17.60
2018-03-20T05:32:29.192Z,17.37
2018-03-20T05:35:03.555Z,17.70
2018-03-20T05:37:38.143Z,18.03
2018-03-20T05:40:12.154Z,18.53
2018-03-20T05:42:47.583Z,18.13
2018-03-20T05:45:21.563Z,18.70
2018-03-20T06:01:19.334Z,16.93
2018-03-20T06:03:53.872Z,17.57
2018-03-20T06:06:28.287Z,17.97
2018-03-20T06:09:02.720Z,18.17
2018-03-20T06:11:36.404Z,18.33
2018-03-20T06:14:10.201Z,18.53
2018-03-20T06:16:45.151Z,17.87
2018-03-20T06:19:19.130Z,19.00
2018-03-20T06:21:54.180Z,19.87
2018-03-20T06:24:28.414Z,18.83
2018-03-20T06:27:05.079Z,18.37
2018-03-20T06:29:39.692Z,18.17
2018-03-20T06:32:14.829Z,18.47
2018-03-20T06:34:48.841Z,18.33
2018-03-20T06:37:25.101Z,17.93
2018-03-20T06:39:59.008Z,16.53
2018-03-20T06:42:33.997Z,17.13
2018-03-20T06:45:08.585Z,16.83
2018-03-20T06:47:43.602Z,17.60
2018-03-20T06:50:18.842Z,18.37
2018-03-20T06:52:53.507Z,17.43
2018-03-20T06:55:28.190Z,17.57
2018-03-20T06:58:02.932Z,18.23
2018-03-20T07:00:37.862Z,20.57
2018-03-20T07:03:13.290Z,19.00
2018-03-20T07:05:49.614Z,18.43
2018-03-20T07:08:24.405Z,19.20
2018-03-20T07:10:58.436Z,19.13
2018-03-20T07:13:33.338Z,20.07
2018-03-20T07:16:08.252Z,17.10
2018-03-20T07:18:43.896Z,17.10
2018-03-20T07:21:18.003Z,17.23
2018-03-20T07:23:53.828Z,17.80
2018-03-20T07:26:27.664Z,17.83
2018-03-20T07:29:02.036Z,16.27
2018-03-20T07:31:36.152Z,17.77
2018-03-20T07:34:09.935Z,17.03
2018-03-20T07:36:44.631Z,17.77
2018-03-20T07:39:18.287Z,17.10
2018-03-20T07:41:52.127Z,17.97
2018-03-20T07:44:25.699Z,17.97
2018-03-20T07:46:59.991Z,16.70
2018-03-20T07:49:34.280Z,18.40
2018-03-20T07:52:09.496Z,16.93
2018-03-20T07:54:43.203Z,17.33
2018-03-20T07:57:16.880Z,17.80
2018-03-20T07:59:50.461Z,18.10
2018-03-20T08:02:24.024Z,18.13
2018-03-20T08:04:58.340Z,17.93
2018-03-20T08:07:31.880Z,18.53
2018-03-20T08:10:05.470Z,18.90
2018-03-20T08:12:39.775Z,18.13
2018-03-20T08:15:14.087Z,18.97
2018-03-20T08:17:48.439Z,18.83
2018-03-20T08:20:22.443Z,18.50
2018-03-20T08:22:56.041Z,18.97
2018-03-20T08:25:29.787Z,19.60
2018-03-20T08:28:04.317Z,20.00
2018-03-20T08:30:38.026Z,19.90
2018-03-20T08:33:11.899Z,19.10
2018-03-20T08:35:46.396Z,20.63
2018-03-20T08:38:19.908Z,19.70
2018-03-20T08:40:53.524Z,19.87
2018-03-20T08:43:27.183Z,21.60
2018-03-20T08:46:00.928Z,20.33
2018-03-20T08:48:34.707Z,18.83
2018-03-20T08:51:09.292Z,19.87
2018-03-20T08:53:42.867Z,18.80
2018-03-20T08:56:17.291Z,19.07
2018-03-20T08:58:52.862Z,20.27
2018-03-20T09:01:27.175Z,19.97
2018-03-20T09:04:01.680Z,19.20
2018-03-20T09:06:35.412Z,20.53
2018-03-20T09:09:09.891Z,19.40
2018-03-20T09:11:43.520Z,21.37
2018-03-20T09:14:17.955Z,21.67
2018-03-20T09:16:51.587Z,22.57
2018-03-20T09:19:25.317Z,22.63
2018-03-20T09:21:59.087Z,21.80
2018-03-20T09:24:32.772Z,21.53
2018-03-20T09:27:06.473Z,20.60
2018-03-20T09:29:41.033Z,21.53
2018-03-20T09:32:14.559Z,20.93
2018-03-20T09:34:48.362Z,20.23
2018-03-20T09:37:21.811Z,20.70
2018-03-20T09:39:56.200Z,18.27
2018-03-20T09:42:30.652Z,18.63
2018-03-20T09:45:04.481Z,19.20
2018-03-20T09:47:38.217Z,19.97
2018-03-20T09:50:12.188Z,21.03
2018-03-20T09:52:45.658Z,18.67
2018-03-20T09:55:19.385Z,18.50
2018-03-20T09:57:53.891Z,18.43
2018-03-20T10:00:28.267Z,19.63
2018-03-20T10:03:02.112Z,18.53
2018-03-20T10:05:35.917Z,18.00
2018-03-20T10:08:09.634Z,18.13
2018-03-20T10:10:43.259Z,20.60
2018-03-20T10:13:17.025Z,18.50
2018-03-20T10:15:51.975Z,17.47
2018-03-20T10:18:25.563Z,17.07
2018-03-20T10:21:00.096Z,16.93
2018-03-20T10:23:33.763Z,17.57
2018-03-20T10:26:07.491Z,18.10
2018-03-20T10:28:41.803Z,16.67
2018-03-20T10:31:15.367Z,15.20
2018-03-20T10:33:49.676Z,15.63
2018-03-20T10:36:24.133Z,20.77
2018-03-20T10:38:57.692Z,15.97
2018-03-20T10:41:31.242Z,16.50
2018-03-20T10:44:04.819Z,18.07
2018-03-20T10:46:38.592Z,19.60
2018-03-20T10:49:12.206Z,21.77
2018-03-20T10:51:45.926Z,20.17
2018-03-20T10:54:19.568Z,15.60
2018-03-20T10:56:53.471Z,14.13
2018-03-20T10:59:27.955Z,13.23
2018-03-20T11:02:07.390Z,13.27
2018-03-20T11:04:41.826Z,11.40
2018-03-20T11:07:15.468Z,12.77
2018-03-20T11:09:49.163Z,12.43
2018-03-20T11:12:22.902Z,13.57
2018-03-20T11:14:56.667Z,11.80
2018-03-20T11:17:31.250Z,12.90
2018-03-20T11:20:05.653Z,11.90
2018-03-20T11:22:39.146Z,11.10
2018-03-20T11:25:12.772Z,10.90
2018-03-20T11:27:47.359Z,10.97
2018-03-20T11:30:20.968Z,10.07
2018-03-20T11:32:54.771Z,10.20
2018-03-20T11:35:28.392Z,11.30
2018-03-20T11:38:02.036Z,10.73
2018-03-20T11:40:37.388Z,9.87
2018-03-20T11:43:11.597Z,11.00
2018-03-20T11:45:45.827Z,10.60
2018-03-20T11:48:19.827Z,10.40
2018-03-20T11:50:53.944Z,10.67
2018-03-20T11:53:27.755Z,10.63
2018-03-20T11:56:01.438Z,10.67
2018-03-20T11:58:36.063Z,10.70
2018-03-20T12:01:09.939Z,10.73
2018-03-20T12:03:45.636Z,9.23
2018-03-20T12:06:20.388Z,9.83
2018-03-20T12:09:06.013Z,8.97
2018-03-20T12:11:40.813Z,9.30
2018-03-20T12:14:16.061Z,8.63
2018-03-20T12:16:50.769Z,9.10
2018-03-20T12:19:25.764Z,9.57
2018-03-20T12:22:00.579Z,8.70
2018-03-20T12:24:35.503Z,9.47
2018-03-20T12:27:09.621Z,8.63
2018-03-20T12:29:44.018Z,8.57
2018-03-20T12:32:17.746Z,8.93
2018-03-20T12:34:51.709Z,8.57
2018-03-20T12:37:26.688Z,9.23
2018-03-20T12:40:01.064Z,8.93
2018-03-20T12:42:34.817Z,8.23
2018-03-20T12:45:08.603Z,8.13
2018-03-20T12:47:42.739Z,6.63
2018-03-20T12:50:17.548Z,6.23
2018-03-20T12:52:52.969Z,6.90
2018-03-20T12:55:27.512Z,6.07
2018-03-20T12:58:01.174Z,7.03
2018-03-20T13:00:34.851Z,6.37
2018-03-20T13:03:08.457Z,5.87
2018-03-20T13:05:43.099Z,6.37
2018-03-20T13:08:18.577Z,5.80
2018-03-20T13:10:52.867Z,5.63
2018-03-20T13:13:26.539Z,6.27
2018-03-20T13:16:02.027Z,5.90
2018-03-20T13:18:36.884Z,6.43
2018-03-20T13:21:11.250Z,6.20
2018-03-20T13:23:45.628Z,6.00
2018-03-20T13:26:20.526Z,6.90
2018-03-20T13:28:54.550Z,7.57
2018-03-20T13:31:28.813Z,8.00
2018-03-20T13:34:03.194Z,8.63
2018-03-20T13:36:37.619Z,7.97
2018-03-20T13:39:13.458Z,8.60
2018-03-20T13:41:47.612Z,7.80
2018-03-20T13:44:21.878Z,8.43
2018-03-20T13:46:56.711Z,10.13
2018-03-20T13:49:31.238Z,8.83
2018-03-20T13:52:05.140Z,8.93
2018-03-20T13:54:39.870Z,9.10
2018-03-20T13:57:16.229Z,9.93
2018-03-20T13:59:52.355Z,10.13
2018-03-20T14:02:27.529Z,10.57
2018-03-20T14:05:02.784Z,9.80
2018-03-20T14:07:37.483Z,11.43
2018-03-20T14:10:13.550Z,9.83
2018-03-20T14:12:48.169Z,8.90
2018-03-20T14:15:21.879Z,9.53
2018-03-20T14:17:57.320Z,10.53
2018-03-20T14:20:32.083Z,10.33
2018-03-20T14:23:06.681Z,10.60
2018-03-20T14:25:42.337Z,10.73
2018-03-20T14:28:16.416Z,10.13
2018-03-20T14:30:50.128Z,10.53
2018-03-20T14:33:25.040Z,10.30
2018-03-20T14:35:59.675Z,11.30
2018-03-20T14:38:35.567Z,10.53
2018-03-20T14:41:10.470Z,10.17
2018-03-20T14:43:46.228Z,11.47
2018-03-20T14:46:19.919Z,12.30
2018-03-20T14:48:54.767Z,11.60
2018-03-20T14:51:28.754Z,11.20
2018-03-20T14:54:03.312Z,12.53
2018-03-20T14:56:37.729Z,12.67
2018-03-20T14:59:12.089Z,12.63
2018-03-20T15:01:46.997Z,12.17
2018-03-20T15:04:21.018Z,12.43
2018-03-20T15:06:55.778Z,12.03
2018-03-20T15:09:30.625Z,11.60
2018-03-20T15:12:05.268Z,12.07
2018-03-20T15:14:39.036Z,13.40
2018-03-20T15:17:14.242Z,13.00
2018-03-20T15:19:48.810Z,17.27
2018-03-20T15:22:23.729Z,13.03
2018-03-20T15:24:57.944Z,15.60
2018-03-20T15:27:33.570Z,14.50
2018-03-20T15:30:07.536Z,15.13
2018-03-20T15:32:42.232Z,15.63
2018-03-20T15:35:18.051Z,15.80
2018-03-20T15:37:52.412Z,15.50
2018-03-20T15:40:26.455Z,15.07
2018-03-20T15:43:00.524Z,16.80
2018-03-20T15:45:35.143Z,15.97
2018-03-20T15:48:09.683Z,20.07
2018-03-20T15:50:44.615Z,14.80
2018-03-20T15:53:18.601Z,22.47
2018-03-20T15:55:52.622Z,16.37
2018-03-20T15:58:26.821Z,15.93
2018-03-20T16:01:00.941Z,18.67
2018-03-20T16:03:36.083Z,17.20
2018-03-20T16:06:10.079Z,21.50
2018-03-20T16:08:45.648Z,16.67
2018-03-20T16:11:19.243Z,17.23
2018-03-20T16:13:54.656Z,15.60
2018-03-20T16:16:29.395Z,16.00
2018-03-20T16:19:05.061Z,20.67
2018-03-20T16:21:40.225Z,15.67
2018-03-20T16:24:14.597Z,13.60
2018-03-20T16:26:49.124Z,17.33
2018-03-20T16:29:23.968Z,15.13
2018-03-20T16:31:58.673Z,13.63
2018-03-20T16:34:33.706Z,12.80
2018-03-20T16:37:08.326Z,13.57
2018-03-20T16:39:42.517Z,14.63
2018-03-20T16:42:17.588Z,14.13
2018-03-20T16:44:51.900Z,15.47
2018-03-20T16:47:26.524Z,16.90
2018-03-20T16:50:00.432Z,18.50
2018-03-20T16:52:34.955Z,21.60
2018-03-20T16:55:08.939Z,20.20
2018-03-20T16:57:45.423Z,18.90
2018-03-20T17:00:20.354Z,32.67
2018-03-20T17:02:55.811Z,21.13
2018-03-20T17:05:30.674Z,20.10
2018-03-20T17:08:06.038Z,22.47
2018-03-20T17:10:40.999Z,19.93
2018-03-20T17:13:15.742Z,18.60
2018-03-20T17:15:49.627Z,19.57
2018-03-20T17:18:24.330Z,18.07
2018-03-20T17:20:58.774Z,17.93
2018-03-20T17:23:33.486Z,19.23
2018-03-20T17:26:08.337Z,19.50
2018-03-20T17:28:43.150Z,19.07
2018-03-20T17:31:17.758Z,18.83
2018-03-20T17:33:51.492Z,18.67
2018-03-20T17:36:26.749Z,18.47
2018-03-20T17:39:01.151Z,18.33
2018-03-20T17:41:37.529Z,17.63
2018-03-20T17:44:11.709Z,17.03
2018-03-20T17:46:45.552Z,19.20
2018-03-20T17:49:19.551Z,17.07
2018-03-20T17:51:55.389Z,18.50
2018-03-20T17:54:29.995Z,16.27
2018-03-20T17:57:05.679Z,18.10
2018-03-20T17:59:39.675Z,16.90
2018-03-20T18:02:15.015Z,16.83
2018-03-20T18:04:49.758Z,18.37
2018-03-20T18:07:25.481Z,18.80
2018-03-20T18:09:59.204Z,19.90
2018-03-20T18:12:34.427Z,21.13
2018-03-20T18:15:08.847Z,25.73
2018-03-20T18:17:43.387Z,21.40
2018-03-20T18:20:17.595Z,20.70
2018-03-20T18:22:52.313Z,21.90
2018-03-20T18:25:27.133Z,20.67
2018-03-20T18:28:01.268Z,20.23
2018-03-20T18:30:36.392Z,20.67
2018-03-20T18:33:11.421Z,22.63
2018-03-20T18:35:45.439Z,22.17
2018-03-20T18:38:19.451Z,22.73
2018-03-20T18:40:55.105Z,20.47
2018-03-20T18:43:28.975Z,21.67
2018-03-20T18:46:06.195Z,21.87
2018-03-20T18:48:40.734Z,21.70
2018-03-20T18:51:16.862Z,22.30
2018-03-20T18:53:51.897Z,22.60
2018-03-20T18:56:25.916Z,21.77
2018-03-20T18:58:59.659Z,23.13
2018-03-20T19:01:33.596Z,23.50
2018-03-20T19:04:07.739Z,23.23
2018-03-20T19:06:43.542Z,23.17
2018-03-20T19:09:17.778Z,22.90
2018-03-20T19:11:53.146Z,24.53
2018-03-20T19:14:28.332Z,22.87
2018-03-20T19:17:03.259Z,22.43
2018-03-20T19:19:37.620Z,22.63
2018-03-20T19:22:13.284Z,23.57
2018-03-20T19:24:49.336Z,23.30
2018-03-20T19:27:23.755Z,22.77
2018-03-20T19:29:58.251Z,22.90
2018-03-20T19:32:33.070Z,23.87
2018-03-20T19:35:09.168Z,23.77
2018-03-20T19:37:43.691Z,24.03
2018-03-20T19:40:17.539Z,25.73
2018-03-20T19:42:52.313Z,25.53
2018-03-20T19:45:26.012Z,26.23
2018-03-20T19:48:01.910Z,24.80
2018-03-20T19:50:37.527Z,28.47
2018-03-20T19:53:12.973Z,28.10
2018-03-20T19:55:47.186Z,24.10
2018-03-20T19:58:21.756Z,28.43
2018-03-20T20:00:56.432Z,29.03
2018-03-20T20:03:31.021Z,33.37
2018-03-20T20:06:06.373Z,30.70
2018-03-20T20:08:43.569Z,32.33
2018-03-20T20:11:19.020Z,30.47
2018-03-20T20:13:54.646Z,27.97
2018-03-20T20:16:29.897Z,27.63
2018-03-20T20:19:06.254Z,27.37
2018-03-20T20:21:40.286Z,28.17
2018-03-20T20:24:17.563Z,35.50
2018-03-20T20:26:52.403Z,29.63
2018-03-20T20:29:27.110Z,28.50
2018-03-20T20:32:02.682Z,29.40
2018-03-20T20:34:37.596Z,30.97
2018-03-20T20:37:12.839Z,27.23
2018-03-20T20:39:47.994Z,31.53
2018-03-20T20:42:22.034Z,32.80
2018-03-20T20:44:56.079Z,30.27
2018-03-20T20:47:34.903Z,29.53
2018-03-20T20:50:09.216Z,30.23
2018-03-20T20:52:45.680Z,30.70
2018-03-20T20:55:19.592Z,29.40
2018-03-20T20:57:56.327Z,31.33
2018-03-20T21:00:35.564Z,30.13
2018-03-20T21:03:11.355Z,34.13
2018-03-20T21:05:46.361Z,33.47
2018-03-20T21:08:21.271Z,29.27
2018-03-20T21:10:56.851Z,34.70
2018-03-20T21:13:30.749Z,31.03
2018-03-20T21:16:07.128Z,29.83
2018-03-20T21:18:42.781Z,29.37
2018-03-20T21:21:18.732Z,29.23
2018-03-20T21:23:57.671Z,29.83
2018-03-20T21:26:34.035Z,30.30
2018-03-20T21:29:08.251Z,26.53
2018-03-20T21:31:44.838Z,34.80
2018-03-20T21:34:19.736Z,29.67
2018-03-20T21:36:55.609Z,27.93
2018-03-20T21:39:29.506Z,26.13
2018-03-20T21:42:04.616Z,25.37
2018-03-20T21:44:39.353Z,27.40
2018-03-20T21:47:15.428Z,25.50
2018-03-20T21:49:50.357Z,28.03
2018-03-20T21:52:24.676Z,26.57
2018-03-20T21:55:00.730Z,24.40
2018-03-20T21:57:37.419Z,26.03
2018-03-20T22:00:11.877Z,25.30
2018-03-20T22:02:46.361Z,28.03
2018-03-20T22:05:20.460Z,27.97
2018-03-20T22:07:54.769Z,26.00
2018-03-20T22:10:28.866Z,24.83
2018-03-20T22:13:04.635Z,23.13
2018-03-20T22:15:39.142Z,23.87
2018-03-20T22:18:15.000Z,22.97
2018-03-20T22:20:49.805Z,22.17
2018-03-20T22:23:24.445Z,23.43
2018-03-20T22:25:59.686Z,24.63
2018-03-20T22:28:35.332Z,23.40
2018-03-20T22:31:09.340Z,22.13
2018-03-20T22:33:44.883Z,26.40
2018-03-20T22:36:18.902Z,21.93
2018-03-20T22:38:57.316Z,18.80
2018-03-20T22:41:32.844Z,17.17
2018-03-20T22:44:07.694Z,18.27
2018-03-20T22:46:41.821Z,17.33
2018-03-20T22:49:17.035Z,16.70
2018-03-20T22:51:51.152Z,15.87
2018-03-20T22:54:25.280Z,14.43
2018-03-20T22:56:59.892Z,13.63
2018-03-20T22:59:35.145Z,12.47
2018-03-20T23:02:09.851Z,13.33
2018-03-20T23:04:45.587Z,13.50
2018-03-20T23:07:19.404Z,12.73
2018-03-20T23:09:53.682Z,12.43
2018-03-20T23:12:27.603Z,12.53
2018-03-20T23:15:04.270Z,13.03
2018-03-20T23:17:38.787Z,13.63
2018-03-20T23:20:13.773Z,12.30
2018-03-20T23:22:47.656Z,11.60
2018-03-20T23:25:23.748Z,11.03
2018-03-20T23:27:57.829Z,11.00
2018-03-20T23:30:35.432Z,10.57
2018-03-20T23:33:10.047Z,11.77
2018-03-20T23:35:44.776Z,10.10
2018-03-20T23:38:18.691Z,10.27
2018-03-20T23:40:54.628Z,10.53
2018-03-20T23:43:28.860Z,10.47
2018-03-20T23:46:04.708Z,10.10
2018-03-20T23:48:39.118Z,8.83
2018-03-20T23:51:16.215Z,11.67
2018-03-20T23:53:50.228Z,10.03
2018-03-20T23:56:24.651Z,9.63
2018-03-20T23:58:58.844Z,10.27
